Time;durP1;ratioP1;P1;durP2;ratioP2;P2;SDS_P1;SDS_P2;PMS_P1;PMS_P2;Temp;Humidity;BMP_temperature;BMP_pressure;BME280_temperature;BME280_humidity;BME280_pressure;Samples;Min_cycle;Max_cycle;Signal;HPM_P1;HPM_P2
2024/01/15 00:01:03;;;;;;;19.00;9.17;;;1.90;99.90;;;;;;5041878;28;20207;-77
2024/01/15 00:03:30;;;;;;;17.80;8.53;;;1.90;99.90;;;;;;5040339;28;20210;-78
2024/01/15 00:05:56;;;;;;;19.33;9.30;;;1.80;99.90;;;;;;5042283;28;20199;-78
2024/01/15 00:08:23;;;;;;;16.70;7.47;;;1.80;99.90;;;;;;5041009;28;20246;-80
2024/01/15 00:10:50;;;;;;;17.70;8.57;;;1.70;99.90;;;;;;5042963;28;20682;-79
2024/01/15 00:13:17;;;;;;;18.00;8.37;;;1.80;99.90;;;;;;5043650;28;20208;-78
2024/01/15 00:15:43;;;;;;;18.00;7.47;;;1.70;99.90;;;;;;5050474;28;20246;-79
2024/01/15 00:18:12;;;;;;;15.57;7.80;;;1.70;99.90;;;;;;5047960;28;20195;-79
2024/01/15 00:20:38;;;;;;;14.93;7.33;;;1.70;99.90;;;;;;5050810;28;20206;-78
2024/01/15 00:23:05;;;;;;;15.60;7.53;;;1.70;99.90;;;;;;5046539;28;20294;-77
2024/01/15 00:25:32;;;;;;;16.73;6.70;;;1.70;99.90;;;;;;5049754;28;20216;-78
2024/01/15 00:27:59;;;;;;;12.80;5.80;;;1.70;99.90;;;;;;5046451;28;20219;-78
2024/01/15 00:30:26;;;;;;;16.83;7.87;;;1.70;99.90;;;;;;5046571;28;20212;-77
2024/01/15 00:32:53;;;;;;;12.63;5.70;;;1.70;99.90;;;;;;5050378;28;20239;-78
2024/01/15 00:35:21;;;;;;;11.87;6.07;;;1.70;99.90;;;;;;5046318;28;20310;-77
2024/01/15 00:37:48;;;;;;;11.37;5.33;;;1.70;99.90;;;;;;5043341;28;20206;-78
2024/01/15 00:40:15;;;;;;;12.13;5.90;;;1.70;99.90;;;;;;5045367;28;20219;-79
2024/01/15 00:42:41;;;;;;;14.63;6.87;;;1.80;99.90;;;;;;5047224;28;20199;-78
2024/01/15 00:45:09;;;;;;;14.37;6.30;;;1.80;99.90;;;;;;5043936;28;20262;-78
2024/01/15 00:47:36;;;;;;;12.60;6.10;;;1.80;99.90;;;;;;5045559;28;20620;-77
2024/01/15 00:50:03;;;;;;;12.67;6.10;;;1.80;99.90;;;;;;5041161;28;20200;-78
2024/01/15 00:52:31;;;;;;;13.23;6.23;;;1.80;99.90;;;;;;5047265;28;21182;-79
2024/01/15 00:54:57;;;;;;;12.93;6.80;;;1.80;99.90;;;;;;5046798;28;20238;-78
2024/01/15 00:57:24;;;;;;;11.90;5.90;;;1.80;99.90;;;;;;5045385;28;20287;-77
2024/01/15 00:59:51;;;;;;;15.33;7.60;;;1.70;99.90;;;;;;5048850;28;20199;-78
2024/01/15 01:02:18;;;;;;;12.63;6.30;;;1.60;99.90;;;;;;5046483;28;20313;-77
2024/01/15 01:04:44;;;;;;;10.43;5.70;;;1.60;99.90;;;;;;5040242;28;20219;-77
2024/01/15 01:07:11;;;;;;;12.27;6.73;;;1.50;99.90;;;;;;5042235;28;20199;-79
2024/01/15 01:09:39;;;;;;;12.30;6.17;;;1.50;99.90;;;;;;5043825;28;20566;-79
2024/01/15 01:12:06;;;;;;;14.70;6.93;;;1.40;99.90;;;;;;5038732;28;20196;-80
2024/01/15 01:14:33;;;;;;;17.87;6.37;;;1.50;99.90;;;;;;5043527;28;20222;-77
2024/01/15 01:17:00;;;;;;;12.90;6.30;;;1.40;99.90;;;;;;5046982;28;20211;-78
2024/01/15 01:19:26;;;;;;;9.63;5.53;;;1.50;99.90;;;;;;5043780;28;20196;-79
2024/01/15 01:21:53;;;;;;;11.00;5.43;;;1.60;99.90;;;;;;5043628;28;20287;-77
2024/01/15 01:24:20;;;;;;;11.10;5.53;;;1.60;99.90;;;;;;5050105;28;20219;-78
2024/01/15 01:26:48;;;;;;;10.47;4.00;;;1.60;99.90;;;;;;5041382;28;20207;-78
2024/01/15 01:29:15;;;;;;;10.77;4.87;;;1.70;1.00;;;;;;5045479;28;20747;-78
2024/01/15 01:31:44;;;;;;;12.67;4.63;;;1.70;1.00;;;;;;5038591;28;20206;-78
2024/01/15 01:34:12;;;;;;;13.30;5.03;;;1.70;1.00;;;;;;5044291;28;20751;-79
2024/01/15 01:36:39;;;;;;;10.53;4.47;;;1.80;99.90;;;;;;5043794;28;20199;-78
2024/01/15 01:39:06;;;;;;;10.07;4.70;;;1.70;99.90;;;;;;5050509;28;20199;-79
2024/01/15 01:41:33;;;;;;;14.10;5.47;;;1.70;70.00;;;;;;5045533;28;20200;-78
2024/01/15 01:44:01;;;;;;;8.40;3.93;;;1.80;1.00;;;;;;5043544;28;20226;-76
2024/01/15 01:46:29;;;;;;;14.30;4.83;;;1.80;1.00;;;;;;5047760;28;20204;-78
2024/01/15 01:48:57;;;;;;;10.77;4.50;;;1.90;99.90;;;;;;5039870;28;20294;-78
2024/01/15 01:51:26;;;;;;;13.90;5.33;;;1.90;99.90;;;;;;5043123;28;20204;-79
2024/01/15 01:53:53;;;;;;;7.97;3.90;;;1.90;99.90;;;;;;5042316;28;20705;-79
2024/01/15 01:56:19;;;;;;;8.73;4.57;;;1.80;12.20;;;;;;5049352;28;20218;-77
2024/01/15 01:58:47;;;;;;;7.37;4.07;;;1.80;1.00;;;;;;5040431;28;20192;-81
2024/01/15 02:01:17;;;;;;;14.47;5.07;;;1.90;1.00;;;;;;5042132;28;20228;-80
2024/01/15 02:03:44;;;;;;;12.07;4.70;;;1.90;99.90;;;;;;5041439;28;20227;-78
2024/01/15 02:06:11;;;;;;;8.13;4.07;;;1.80;99.90;;;;;;5045117;28;20210;-77
2024/01/15 02:08:38;;;;;;;12.23;4.60;;;1.90;64.80;;;;;;5042836;28;20239;-79
2024/01/15 02:11:05;;;;;;;13.00;4.50;;;1.90;99.90;;;;;;5048732;28;20213;-79
2024/01/15 02:13:32;;;;;;;16.13;4.53;;;1.90;14.30;;;;;;5048381;28;20257;-77
2024/01/15 02:15:58;;;;;;;13.20;3.60;;;1.90;1.00;;;;;;5043733;28;20211;-80
2024/01/15 02:18:27;;;;;;;5.90;3.40;;;2.00;1.00;;;;;;5041863;28;20200;-79
2024/01/15 02:20:53;;;;;;;9.10;3.50;;;2.00;1.00;;;;;;5042658;28;20263;-78
2024/01/15 02:23:22;;;;;;;12.43;3.60;;;2.10;1.00;;;;;;5041081;28;20577;-79
2024/01/15 02:25:48;;;;;;;10.10;3.83;;;2.10;1.00;;;;;;5040634;28;20229;-79
2024/01/15 02:28:17;;;;;;;7.93;3.07;;;2.20;99.90;;;;;;5044851;28;20227;-78
2024/01/15 02:30:44;;;;;;;9.97;3.43;;;2.30;99.90;;;;;;5039715;28;20210;-78
2024/01/15 02:33:12;;;;;;;5.90;2.83;;;2.20;99.90;;;;;;5048041;28;20241;-81
2024/01/15 02:35:39;;;;;;;12.83;2.90;;;2.20;99.90;;;;;;5043019;28;20223;-80
2024/01/15 02:38:06;;;;;;;7.57;3.87;;;2.20;99.90;;;;;;5038893;28;20206;-79
2024/01/15 02:40:35;;;;;;;7.53;2.90;;;2.20;99.90;;;;;;5042590;28;20210;-79
2024/01/15 02:43:02;;;;;;;8.77;3.07;;;2.40;73.20;;;;;;5044370;28;20650;-77
2024/01/15 02:45:29;;;;;;;6.20;3.30;;;2.30;32.80;;;;;;5042803;28;20229;-77
2024/01/15 02:47:55;;;;;;;8.43;2.87;;;2.30;1.00;;;;;;5043687;28;20230;-80
2024/01/15 02:50:22;;;;;;;8.33;3.00;;;2.30;1.00;;;;;;5041645;28;20200;-78
2024/01/15 02:52:49;;;;;;;9.23;3.10;;;2.30;1.00;;;;;;5041205;28;20214;-77
2024/01/15 02:55:16;;;;;;;6.17;2.83;;;2.30;1.00;;;;;;5039352;28;20246;-80
2024/01/15 02:57:44;;;;;;;6.50;3.10;;;2.30;1.00;;;;;;5048287;28;20649;-78
2024/01/15 03:00:12;;;;;;;10.70;2.80;;;2.30;1.00;;;;;;5041563;28;20206;-78
2024/01/15 03:02:39;;;;;;;8.07;1.90;;;2.40;1.00;;;;;;5043661;28;20208;-79
2024/01/15 03:05:07;;;;;;;6.40;2.03;;;2.30;1.00;;;;;;5039724;28;20222;-79
2024/01/15 03:07:34;;;;;;;5.13;2.30;;;2.40;1.00;;;;;;5045529;28;20199;-81
2024/01/15 03:10:01;;;;;;;12.53;3.10;;;2.40;1.00;;;;;;5044209;28;20220;-78
2024/01/15 03:12:28;;;;;;;6.93;2.07;;;2.40;1.00;;;;;;5045053;28;20199;-76
2024/01/15 03:14:56;;;;;;;4.77;1.67;;;2.30;1.00;;;;;;5048042;28;20223;-79
2024/01/15 03:17:23;;;;;;;5.67;2.03;;;2.40;99.90;;;;;;5041780;28;20214;-77
2024/01/15 03:19:50;;;;;;;8.97;2.23;;;2.40;1.00;;;;;;5043650;28;20764;-79
2024/01/15 03:22:17;;;;;;;13.60;3.03;;;2.30;1.00;;;;;;5039896;28;20199;-79
2024/01/15 03:24:44;;;;;;;8.40;2.37;;;2.40;99.90;;;;;;5041265;28;20232;-79
2024/01/15 03:27:11;;;;;;;8.27;2.63;;;2.40;1.00;;;;;;5042101;28;20199;-79
2024/01/15 03:29:38;;;;;;;8.37;2.30;;;2.40;99.90;;;;;;5041381;28;20603;-79
2024/01/15 03:32:06;;;;;;;10.60;3.00;;;2.40;1.00;;;;;;5039898;28;20200;-79
2024/01/15 03:34:33;;;;;;;8.83;2.50;;;2.40;1.00;;;;;;5044204;28;20214;-78
2024/01/15 03:37:00;;;;;;;10.10;2.60;;;2.40;1.00;;;;;;5039325;28;20207;-78
2024/01/15 03:39:27;;;;;;;7.33;2.70;;;2.40;1.00;;;;;;5040327;28;20200;-78
2024/01/15 03:41:53;;;;;;;10.07;2.83;;;2.40;1.00;;;;;;5041738;28;20283;-77
2024/01/15 03:44:20;;;;;;;8.17;2.60;;;2.40;1.00;;;;;;5041574;28;20299;-79
2024/01/15 03:46:47;;;;;;;4.37;1.90;;;2.30;1.00;;;;;;5043695;28;20199;-80
2024/01/15 03:49:15;;;;;;;6.13;2.43;;;2.30;1.00;;;;;;5043324;28;21243;-78
2024/01/15 03:51:42;;;;;;;8.27;2.63;;;2.40;1.00;;;;;;5042195;28;20195;-81
2024/01/15 03:54:08;;;;;;;7.67;2.23;;;2.40;1.00;;;;;;5042908;28;20234;-78
2024/01/15 03:56:35;;;;;;;11.93;3.03;;;2.60;1.00;;;;;;5051114;28;20204;-77
2024/01/15 03:59:02;;;;;;;11.07;3.60;;;2.40;1.00;;;;;;5046473;28;20200;-78
2024/01/15 04:01:29;;;;;;;8.00;2.60;;;2.40;1.00;;;;;;5052777;28;20294;-77
2024/01/15 04:03:56;;;;;;;9.63;2.50;;;2.40;1.00;;;;;;5046081;28;20305;-79
2024/01/15 04:06:24;;;;;;;8.73;2.60;;;2.50;1.00;;;;;;5043588;28;20541;-78
2024/01/15 04:08:51;;;;;;;10.27;2.40;;;2.40;1.00;;;;;;5045940;28;20214;-79
2024/01/15 04:11:18;;;;;;;11.30;2.80;;;2.50;1.00;;;;;;5047973;28;20789;-80
2024/01/15 04:13:45;;;;;;;9.67;2.50;;;2.50;1.00;;;;;;5051154;28;20342;-80
2024/01/15 04:16:12;;;;;;;5.30;1.93;;;2.50;1.00;;;;;;5046825;28;20211;-81
2024/01/15 04:18:38;;;;;;;8.37;2.10;;;2.50;1.00;;;;;;5048582;28;20208;-79
2024/01/15 04:21:06;;;;;;;8.70;2.57;;;2.50;1.00;;;;;;5043275;28;20640;-79
2024/01/15 04:23:34;;;;;;;7.30;2.17;;;2.50;1.00;;;;;;5041855;28;20204;-78
2024/01/15 04:26:01;;;;;;;5.40;1.90;;;2.50;1.00;;;;;;5037507;28;20298;-78
2024/01/15 04:28:28;;;;;;;12.70;4.23;;;2.50;1.00;;;;;;5038674;28;20223;-78
2024/01/15 04:30:54;;;;;;;7.67;2.83;;;2.50;1.00;;;;;;5040965;28;20635;-80
2024/01/15 04:33:21;;;;;;;8.73;3.33;;;2.50;1.00;;;;;;5025070;28;20228;-81
2024/01/15 04:35:48;;;;;;;10.87;2.57;;;2.50;1.00;;;;;;5045519;28;20699;-82
2024/01/15 04:38:15;;;;;;;6.57;2.17;;;2.40;1.00;;;;;;5057040;28;20234;-79
2024/01/15 04:40:43;;;;;;;9.67;2.30;;;2.40;1.00;;;;;;5049889;28;20200;-83
2024/01/15 04:43:10;;;;;;;9.20;2.23;;;2.40;1.00;;;;;;5051962;28;20416;-82
2024/01/15 04:45:36;;;;;;;9.97;2.73;;;2.30;1.00;;;;;;5046529;28;20603;-80
2024/01/15 04:48:04;;;;;;;4.80;2.10;;;2.30;1.00;;;;;;5051778;28;20200;-81
2024/01/15 04:50:30;;;;;;;5.37;2.43;;;2.40;1.00;;;;;;5051049;28;20219;-82
2024/01/15 04:52:57;;;;;;;13.10;2.83;;;2.40;1.00;;;;;;5045702;28;20226;-79
2024/01/15 04:55:24;;;;;;;4.03;2.50;;;2.40;1.00;;;;;;5045908;28;20224;-83
2024/01/15 04:57:52;;;;;;;13.90;3.20;;;2.40;1.00;;;;;;5037025;28;20207;-84
2024/01/15 05:00:19;;;;;;;7.07;2.60;;;2.30;1.00;;;;;;5046257;28;20202;-82
2024/01/15 05:02:46;;;;;;;9.33;3.30;;;2.40;1.00;;;;;;5052287;28;20199;-81
2024/01/15 05:05:13;;;;;;;13.90;2.63;;;2.40;2.40;;;;;;5044620;28;20288;-82
2024/01/15 05:07:40;;;;;;;7.63;2.40;;;2.40;99.90;;;;;;5043843;28;20200;-80
2024/01/15 05:10:08;;;;;;;6.43;2.60;;;2.30;99.90;;;;;;5040913;28;20238;-82
2024/01/15 05:12:35;;;;;;;5.07;2.20;;;2.30;99.90;;;;;;5048058;28;20199;-81
2024/01/15 05:15:04;;;;;;;6.73;2.43;;;2.20;99.90;;;;;;5048201;28;20223;-80
2024/01/15 05:17:30;;;;;;;8.40;2.53;;;2.20;1.00;;;;;;5048170;28;20219;-81
2024/01/15 05:19:57;;;;;;;6.67;2.50;;;2.20;1.00;;;;;;5042019;28;20354;-82
2024/01/15 05:22:24;;;;;;;7.53;2.63;;;2.20;1.00;;;;;;5041998;28;20642;-82
2024/01/15 05:24:51;;;;;;;4.00;2.27;;;2.20;1.00;;;;;;5048748;28;20229;-82
2024/01/15 05:27:18;;;;;;;10.80;2.73;;;2.20;1.00;;;;;;5040693;28;20263;-82
2024/01/15 05:29:45;;;;;;;7.50;2.73;;;2.20;1.00;;;;;;5046294;28;20219;-81
2024/01/15 05:32:13;;;;;;;12.57;2.60;;;2.20;99.90;;;;;;5034964;28;20208;-82
2024/01/15 05:34:40;;;;;;;9.20;2.67;;;2.20;1.00;;;;;;5043053;28;20306;-82
2024/01/15 05:37:06;;;;;;;11.30;3.17;;;2.10;1.00;;;;;;5046041;28;20199;-82
2024/01/15 05:39:33;;;;;;;15.73;2.70;;;2.10;99.90;;;;;;5051455;28;20196;-81
2024/01/15 05:42:00;;;;;;;6.77;2.80;;;2.00;1.00;;;;;;5045804;28;20218;-81
2024/01/15 05:44:27;;;;;;;9.03;3.03;;;2.00;99.90;;;;;;5049562;28;20223;-82
2024/01/15 05:46:54;;;;;;;8.43;3.20;;;1.90;99.90;;;;;;5043601;28;20206;-78
2024/01/15 05:49:22;;;;;;;8.80;5.00;;;2.00;99.90;;;;;;5045815;28;20230;-81
2024/01/15 05:51:49;;;;;;;11.47;3.80;;;1.90;1.00;;;;;;5042349;28;20206;-82
2024/01/15 05:54:16;;;;;;;7.23;3.17;;;1.90;1.00;;;;;;5040039;28;20243;-81
2024/01/15 05:56:43;;;;;;;8.13;2.80;;;1.90;1.00;;;;;;5050443;28;20195;-81
2024/01/15 05:59:09;;;;;;;8.67;2.70;;;1.90;1.00;;;;;;5039553;28;20195;-80
2024/01/15 06:01:36;;;;;;;7.77;3.13;;;2.00;1.00;;;;;;5040348;28;20200;-81
2024/01/15 06:04:03;;;;;;;9.93;3.53;;;2.00;79.60;;;;;;5042230;28;20243;-82
2024/01/15 06:06:31;;;;;;;10.77;3.10;;;2.00;1.00;;;;;;5043542;28;20717;-79
2024/01/15 06:09:04;;;;;;;6.67;2.77;;;2.00;1.00;;;;;;5047681;28;20230;-80
2024/01/15 06:11:32;;;;;;;11.00;3.33;;;2.00;1.00;;;;;;5039536;28;20200;-82
2024/01/15 06:13:58;;;;;;;9.43;2.90;;;2.00;1.00;;;;;;5038085;28;20306;-80
2024/01/15 06:16:25;;;;;;;8.80;2.60;;;2.00;1.00;;;;;;5039864;28;20211;-83
2024/01/15 06:18:52;;;;;;;6.93;2.53;;;2.10;1.00;;;;;;5039641;28;20210;-83
2024/01/15 06:21:19;;;;;;;8.93;3.10;;;2.10;1.00;;;;;;5041278;28;20207;-80
2024/01/15 06:23:47;;;;;;;4.67;2.10;;;2.10;99.90;;;;;;5039755;28;20229;-82
2024/01/15 06:26:14;;;;;;;4.87;2.53;;;2.00;1.00;;;;;;5054040;28;20203;-81
2024/01/15 06:28:40;;;;;;;6.17;2.57;;;2.00;99.90;;;;;;5041725;28;20654;-82
2024/01/15 06:31:08;;;;;;;6.80;2.60;;;1.90;1.00;;;;;;5050545;28;20206;-80
2024/01/15 06:33:35;;;;;;;5.87;2.70;;;1.80;99.90;;;;;;5046328;28;20195;-82
2024/01/15 06:36:01;;;;;;;8.37;2.40;;;1.80;1.00;;;;;;5049398;28;20206;-80
2024/01/15 06:38:28;;;;;;;6.77;2.63;;;1.80;1.00;;;;;;5046055;28;20286;-81
2024/01/15 06:40:56;;;;;;;8.37;2.40;;;1.80;1.00;;;;;;5044530;28;20200;-81
2024/01/15 06:43:23;;;;;;;9.23;2.80;;;1.80;1.00;;;;;;5044247;28;20200;-81
2024/01/15 06:45:50;;;;;;;10.00;3.20;;;1.90;99.90;;;;;;5043863;28;20216;-81
2024/01/15 06:48:17;;;;;;;9.13;3.00;;;1.90;99.90;;;;;;5044007;28;20210;-82
2024/01/15 06:50:44;;;;;;;7.17;2.70;;;1.90;99.90;;;;;;5041753;28;20226;-82
2024/01/15 06:53:10;;;;;;;7.93;3.43;;;2.00;1.00;;;;;;5038816;28;20209;-81
2024/01/15 06:55:38;;;;;;;8.23;2.53;;;2.00;1.00;;;;;;5041428;28;20222;-83
2024/01/15 06:58:06;;;;;;;5.37;2.87;;;2.10;69.20;;;;;;5041427;28;20210;-82
2024/01/15 07:00:33;;;;;;;10.70;3.13;;;2.10;1.00;;;;;;5042278;28;20204;-81
2024/01/15 07:03:00;;;;;;;6.57;2.83;;;2.20;1.00;;;;;;5040365;28;20203;-80
2024/01/15 07:05:27;;;;;;;8.60;3.00;;;2.20;99.90;;;;;;5038300;28;20226;-82
2024/01/15 07:07:53;;;;;;;8.37;2.30;;;2.20;99.90;;;;;;5043670;28;20206;-82
2024/01/15 07:10:20;;;;;;;9.70;3.00;;;2.20;99.90;;;;;;5046646;28;20212;-79
2024/01/15 07:12:47;;;;;;;8.03;2.70;;;2.20;1.00;;;;;;5042779;28;20195;-81
2024/01/15 07:15:15;;;;;;;10.93;2.67;;;2.20;99.90;;;;;;5037491;28;20223;-81
2024/01/15 07:17:42;;;;;;;6.77;2.50;;;2.20;1.00;;;;;;5039456;28;20214;-82
2024/01/15 07:20:10;;;;;;;7.53;2.80;;;2.20;1.00;;;;;;5037371;28;20203;-81
2024/01/15 07:22:37;;;;;;;8.13;2.37;;;2.20;1.00;;;;;;5036896;28;20196;-80
2024/01/15 07:25:06;;;;;;;7.90;2.90;;;2.10;99.90;;;;;;5043345;28;20222;-83
2024/01/15 07:27:33;;;;;;;7.37;2.20;;;2.10;1.00;;;;;;5046514;28;20234;-81
2024/01/15 07:30:00;;;;;;;7.23;3.00;;;2.00;1.00;;;;;;5056114;28;20214;-80
2024/01/15 07:32:28;;;;;;;4.33;2.70;;;2.00;99.90;;;;;;5052505;28;20202;-82
2024/01/15 07:34:55;;;;;;;5.00;2.23;;;2.10;99.90;;;;;;5037244;28;20223;-81
2024/01/15 07:37:23;;;;;;;6.20;2.40;;;2.10;69.40;;;;;;5050760;28;20203;-82
2024/01/15 07:39:50;;;;;;;7.50;2.27;;;2.10;99.90;;;;;;5045366;28;20192;-80
2024/01/15 07:42:16;;;;;;;5.53;2.10;;;2.00;99.90;;;;;;5045457;28;20213;-80
2024/01/15 07:44:44;;;;;;;6.77;3.10;;;2.00;1.00;;;;;;5045548;28;20230;-82
2024/01/15 07:47:10;;;;;;;4.37;2.43;;;2.00;99.90;;;;;;5046174;28;20585;-83
2024/01/15 07:49:39;;;;;;;6.70;2.13;;;2.00;1.00;;;;;;5050734;28;20588;-80
2024/01/15 07:52:06;;;;;;;4.93;2.77;;;2.00;1.00;;;;;;5054400;28;20203;-84
2024/01/15 07:54:32;;;;;;;4.53;2.20;;;2.00;1.00;;;;;;5051286;28;20286;-80
2024/01/15 07:57:00;;;;;;;6.20;2.40;;;2.00;1.00;;;;;;5046177;28;20868;-81
2024/01/15 07:59:27;;;;;;;5.37;2.27;;;2.00;99.90;;;;;;5045645;28;20206;-82
2024/01/15 08:01:54;;;;;;;11.30;3.73;;;2.00;1.00;;;;;;5048669;28;20207;-83
2024/01/15 08:04:21;;;;;;;6.47;2.77;;;1.90;1.00;;;;;;5054642;28;20230;-81
2024/01/15 08:06:49;;;;;;;4.77;2.47;;;1.90;99.90;;;;;;5045039;28;20204;-82
2024/01/15 08:09:16;;;;;;;5.53;2.30;;;1.90;99.90;;;;;;5054577;28;20206;-84
2024/01/15 08:11:43;;;;;;;10.47;2.63;;;1.90;99.90;;;;;;5050190;28;20210;-80
2024/01/15 08:14:11;;;;;;;16.47;3.60;;;1.90;1.00;;;;;;5045807;28;20219;-82
2024/01/15 08:16:38;;;;;;;7.10;3.20;;;2.00;99.90;;;;;;5050713;28;20704;-80
2024/01/15 08:19:05;;;;;;;6.27;2.03;;;2.10;1.00;;;;;;5045373;28;20200;-81
2024/01/15 08:21:32;;;;;;;4.60;2.43;;;2.10;1.00;;;;;;5047014;28;20202;-80
2024/01/15 08:24:02;;;;;;;6.50;2.63;;;2.10;1.00;;;;;;5044580;28;20223;-81
2024/01/15 08:26:28;;;;;;;5.57;2.50;;;2.10;99.90;;;;;;5046244;28;20270;-82
2024/01/15 08:28:55;;;;;;;6.37;3.10;;;2.10;1.00;;;;;;5045942;28;20208;-82
2024/01/15 08:31:22;;;;;;;3.53;2.30;;;2.10;17.70;;;;;;5051705;28;20220;-81
2024/01/15 08:33:49;;;;;;;5.67;2.67;;;2.10;44.40;;;;;;5045014;28;20233;-81
2024/01/15 08:36:16;;;;;;;5.93;2.73;;;2.10;1.00;;;;;;5045459;28;20200;-79
2024/01/15 08:38:43;;;;;;;6.23;3.10;;;2.00;1.00;;;;;;5041409;28;20219;-82
2024/01/15 08:41:11;;;;;;;5.57;2.60;;;2.10;99.90;;;;;;5046994;28;20202;-82
2024/01/15 08:43:38;;;;;;;7.53;2.60;;;2.10;79.60;;;;;;5040294;28;20210;-81
2024/01/15 08:46:05;;;;;;;8.37;3.10;;;2.10;1.00;;;;;;5049577;28;20250;-82
2024/01/15 08:48:31;;;;;;;5.00;2.83;;;2.20;99.90;;;;;;5047150;28;20649;-79
2024/01/15 08:50:58;;;;;;;6.87;2.57;;;2.30;1.00;;;;;;5047168;28;20222;-80
2024/01/15 08:53:25;;;;;;;11.53;2.80;;;2.30;1.00;;;;;;5047832;28;20229;-80
2024/01/15 08:55:52;;;;;;;6.20;2.70;;;2.20;1.00;;;;;;5050860;28;20267;-80
2024/01/15 08:58:20;;;;;;;4.00;2.60;;;2.20;77.50;;;;;;5048225;28;20203;-81
2024/01/15 09:00:47;;;;;;;5.10;2.87;;;2.20;99.90;;;;;;5045233;28;20200;-81
2024/01/15 09:03:14;;;;;;;4.97;2.77;;;2.20;99.90;;;;;;5037001;28;20218;-84
2024/01/15 09:05:41;;;;;;;9.37;2.70;;;2.20;1.00;;;;;;5044482;28;20262;-83
2024/01/15 09:08:08;;;;;;;6.60;2.53;;;2.20;1.00;;;;;;5044108;28;20208;-81
2024/01/15 09:10:35;;;;;;;3.63;2.50;;;2.20;1.00;;;;;;5041172;28;20215;-81
2024/01/15 09:13:03;;;;;;;7.87;3.00;;;2.30;1.00;;;;;;5048389;28;20357;-80
2024/01/15 09:15:32;;;;;;;5.97;2.90;;;2.30;1.00;;;;;;5045890;28;20231;-81
2024/01/15 09:17:58;;;;;;;4.23;2.63;;;2.40;99.90;;;;;;5048072;28;20214;-80
2024/01/15 09:20:27;;;;;;;7.43;3.10;;;2.50;1.00;;;;;;5044405;28;20677;-80
2024/01/15 09:22:54;;;;;;;4.57;2.50;;;2.50;1.00;;;;;;5044938;28;20237;-81
2024/01/15 09:25:20;;;;;;;5.67;2.60;;;2.50;1.00;;;;;;5047457;28;20230;-81
2024/01/15 09:27:48;;;;;;;7.03;2.30;;;2.60;99.90;;;;;;5040151;28;20737;-83
2024/01/15 09:30:15;;;;;;;6.40;2.77;;;2.60;99.90;;;;;;5041281;28;20223;-82
2024/01/15 09:32:43;;;;;;;4.57;2.10;;;2.60;99.90;;;;;;5035251;28;20196;-82
2024/01/15 09:35:10;;;;;;;7.83;2.80;;;2.60;99.90;;;;;;5050921;28;20234;-82
2024/01/15 09:37:37;;;;;;;9.70;3.10;;;2.70;26.20;;;;;;5032416;28;20287;-82
2024/01/15 09:40:06;;;;;;;9.20;3.00;;;2.70;31.80;;;;;;5048800;28;20200;-80
2024/01/15 09:42:33;;;;;;;8.87;3.07;;;2.80;8.40;;;;;;5040770;28;20246;-82
2024/01/15 09:45:00;;;;;;;7.67;2.73;;;2.80;1.00;;;;;;5046248;28;20306;-80
2024/01/15 09:47:27;;;;;;;6.53;2.53;;;2.80;84.10;;;;;;5045762;28;20207;-82
2024/01/15 09:49:57;;;;;;;5.13;2.50;;;2.80;99.90;;;;;;5048667;28;20207;-81
2024/01/15 09:52:26;;;;;;;10.97;3.27;;;2.80;1.00;;;;;;5045813;28;20617;-81
2024/01/15 09:54:53;;;;;;;6.27;2.43;;;2.80;1.00;;;;;;5045108;28;20587;-81
2024/01/15 09:57:20;;;;;;;9.53;3.17;;;2.70;99.90;;;;;;5045385;28;20206;-82
2024/01/15 09:59:49;;;;;;;7.63;2.70;;;2.70;99.90;;;;;;5047585;28;20207;-80
2024/01/15 10:02:18;;;;;;;6.53;2.33;;;2.80;95.60;;;;;;5040761;28;20201;-81
2024/01/15 10:04:45;;;;;;;9.60;2.30;;;2.90;1.00;;;;;;5048138;28;20223;-81
2024/01/15 10:07:18;;;;;;;8.23;2.13;;;2.90;1.00;;;;;;5044582;28;20210;-82
2024/01/15 10:09:46;;;;;;;6.60;2.23;;;3.10;1.00;;;;;;5035618;28;20219;-79
2024/01/15 10:12:13;;;;;;;6.30;2.27;;;3.00;1.00;;;;;;5043061;28;20227;-80
2024/01/15 10:14:42;;;;;;;3.10;1.90;;;2.90;1.00;;;;;;5048411;28;20224;-81
2024/01/15 10:17:17;;;;;;;4.43;2.10;;;2.70;99.90;;;;;;5041680;28;20286;-79
2024/01/15 10:19:43;;;;;;;5.27;1.80;;;2.30;1.00;;;;;;5036537;28;20208;-81
2024/01/15 10:22:10;;;;;;;3.60;1.60;;;2.00;1.00;;;;;;5046352;28;20221;-82
2024/01/15 10:24:41;;;;;;;3.90;2.23;;;1.70;99.90;;;;;;5049096;28;20232;-81
2024/01/15 10:27:08;;;;;;;5.63;2.07;;;1.60;99.90;;;;;;5041463;28;20271;-82
2024/01/15 10:29:36;;;;;;;9.70;2.60;;;1.60;99.90;;;;;;5041739;28;20258;-82
2024/01/15 10:32:03;;;;;;;3.30;2.00;;;1.70;99.90;;;;;;5040211;28;20318;-81
2024/01/15 10:34:31;;;;;;;4.40;2.37;;;1.80;99.90;;;;;;5047203;28;20686;-81
2024/01/15 10:36:58;;;;;;;5.73;1.97;;;1.90;99.90;;;;;;5038547;28;20601;-81
2024/01/15 10:39:25;;;;;;;3.97;2.23;;;2.00;99.90;;;;;;5039860;28;20204;-82
2024/01/15 10:41:53;;;;;;;4.53;1.90;;;2.20;1.00;;;;;;5039723;28;20658;-81
2024/01/15 10:44:20;;;;;;;3.80;1.97;;;2.30;1.00;;;;;;5038873;28;20227;-81
2024/01/15 10:46:48;;;;;;;7.03;1.80;;;2.50;83.20;;;;;;5045018;28;20211;-80
2024/01/15 10:49:15;;;;;;;5.37;2.00;;;2.60;1.00;;;;;;5037577;28;20214;-80
2024/01/15 10:51:43;;;;;;;3.27;1.77;;;2.70;1.00;;;;;;5037655;28;20592;-81
2024/01/15 10:54:11;;;;;;;4.40;2.20;;;2.70;1.00;;;;;;5038551;28;20219;-81
2024/01/15 10:56:40;;;;;;;2.80;1.73;;;2.70;1.00;;;;;;5042117;28;20898;-81
2024/01/15 10:59:10;;;;;;;2.80;2.20;;;2.70;1.00;;;;;;5041497;28;20210;-81
2024/01/15 11:01:37;;;;;;;4.07;2.20;;;2.70;99.90;;;;;;5041607;28;20269;-80
2024/01/15 11:04:05;;;;;;;6.20;2.50;;;2.70;99.90;;;;;;5050169;28;20732;-80
2024/01/15 11:06:43;;;;;;;5.87;2.70;;;2.70;1.00;;;;;;5050598;28;20202;-82
2024/01/15 11:09:10;;;;;;;6.70;2.30;;;2.70;1.00;;;;;;5042724;28;20214;-80
2024/01/15 11:11:37;;;;;;;4.83;2.17;;;2.70;99.90;;;;;;5038306;28;20215;-80
2024/01/15 11:14:04;;;;;;;5.03;2.63;;;2.70;99.90;;;;;;5049166;28;20227;-79
2024/01/15 11:16:56;;;;;;;4.57;1.90;;;2.80;99.90;;;;;;5034572;28;20211;-81
2024/01/15 11:19:22;;;;;;;6.40;2.30;;;2.80;99.90;;;;;;5037874;28;20235;-80
2024/01/15 11:21:49;;;;;;;3.23;2.03;;;2.90;70.20;;;;;;5038738;28;20210;-81
2024/01/15 11:24:34;;;;;;;3.37;1.93;;;3.10;1.00;;;;;;5037387;28;20243;-83
2024/01/15 11:27:01;;;;;;;4.43;2.27;;;2.90;1.00;;;;;;5034004;28;20204;-80
2024/01/15 11:29:32;;;;;;;3.87;2.23;;;3.00;1.00;;;;;;5053442;28;20203;-81
2024/01/15 11:32:08;;;;;;;3.87;2.07;;;3.00;1.00;;;;;;5041573;28;20223;-81
2024/01/15 11:35:01;;;;;;;4.83;2.67;;;3.00;1.00;;;;;;5038487;28;20223;-80
2024/01/15 11:37:29;;;;;;;5.33;2.30;;;3.00;1.00;;;;;;5038885;28;20203;-82
2024/01/15 11:40:01;;;;;;;5.93;2.27;;;3.00;1.00;;;;;;5040805;28;20207;-81
2024/01/15 11:42:30;;;;;;;4.87;2.00;;;3.00;1.00;;;;;;5037449;28;20662;-77
2024/01/15 11:44:57;;;;;;;5.60;2.40;;;3.00;99.90;;;;;;5041398;28;20689;-80
2024/01/15 11:47:50;;;;;;;8.33;2.37;;;3.10;99.90;;;;;;5036864;28;20204;-81
2024/01/15 11:50:18;;;;;;;3.97;1.50;;;3.10;99.90;;;;;;5035202;28;20230;-81
2024/01/15 11:52:52;;;;;;;3.70;2.20;;;3.00;99.90;;;;;;5040448;28;20219;-80
2024/01/15 11:55:23;;;;;;;5.30;2.17;;;3.00;99.90;;;;;;5047407;28;20222;-82
2024/01/15 11:57:52;;;;;;;7.63;2.10;;;3.00;99.90;;;;;;5046857;28;20200;-81
2024/01/15 12:00:19;;;;;;;6.93;2.23;;;3.00;99.90;;;;;;5042288;28;20206;-81
2024/01/15 12:02:48;;;;;;;8.17;2.70;;;2.90;99.90;;;;;;5037503;28;20237;-79
2024/01/15 12:05:17;;;;;;;8.13;2.70;;;2.90;99.90;;;;;;5047125;28;20589;-82
2024/01/15 12:07:45;;;;;;;8.23;2.30;;;2.90;89.40;;;;;;5038273;28;20202;-82
2024/01/15 12:10:13;;;;;;;9.77;2.43;;;2.90;64.20;;;;;;5043205;28;20204;-81
2024/01/15 12:13:03;;;;;;;6.37;2.40;;;2.90;1.00;;;;;;5041102;28;20424;-81
2024/01/15 12:15:31;;;;;;;4.03;2.40;;;2.90;1.00;;;;;;5041095;28;20723;-80
2024/01/15 12:18:02;;;;;;;4.43;1.73;;;2.90;1.00;;;;;;5043827;28;20234;-84
2024/01/15 12:20:29;;;;;;;2.77;1.60;;;3.00;1.00;;;;;;5038820;28;20203;-80
2024/01/15 12:22:57;;;;;;;7.77;2.10;;;3.10;1.00;;;;;;5041201;28;20195;-83
2024/01/15 12:25:24;;;;;;;4.73;1.87;;;3.10;1.00;;;;;;5041896;28;20313;-83
2024/01/15 12:27:52;;;;;;;5.00;2.00;;;3.20;1.00;;;;;;5046923;28;20203;-78
2024/01/15 12:30:18;;;;;;;10.93;2.20;;;3.30;1.00;;;;;;5041424;28;20692;-81
2024/01/15 12:32:46;;;;;;;8.33;1.87;;;3.50;1.00;;;;;;5047340;28;20229;-80
2024/01/15 12:35:16;;;;;;;6.87;2.37;;;3.50;1.00;;;;;;5045861;28;20229;-80
2024/01/15 12:37:43;;;;;;;11.30;3.07;;;3.60;1.00;;;;;;5043811;28;20208;-79
2024/01/15 12:40:11;;;;;;;6.30;1.90;;;3.40;1.00;;;;;;5043470;28;20196;-83
2024/01/15 12:42:38;;;;;;;8.13;2.57;;;3.40;1.00;;;;;;5043129;28;20223;-81
2024/01/15 12:45:08;;;;;;;10.83;2.40;;;3.30;1.00;;;;;;5048158;28;20223;-82
2024/01/15 12:47:35;;;;;;;5.97;2.47;;;3.10;1.00;;;;;;5044968;28;20199;-81
2024/01/15 12:50:01;;;;;;;7.80;3.00;;;3.00;1.00;;;;;;5041793;28;20200;-80
2024/01/15 12:52:31;;;;;;;3.97;1.40;;;3.00;1.00;;;;;;5040090;28;20258;-81
2024/01/15 12:54:58;;;;;;;7.10;1.93;;;3.00;1.00;;;;;;5039272;28;21011;-80
2024/01/15 12:57:24;;;;;;;6.00;2.50;;;2.90;1.00;;;;;;5045651;28;20204;-81
2024/01/15 12:59:52;;;;;;;6.40;1.80;;;2.90;1.00;;;;;;5044707;28;20199;-85
2024/01/15 13:02:19;;;;;;;6.40;2.00;;;2.90;1.00;;;;;;5044198;28;20196;-82